sensor_id;sensor_type;location;lat;lon;timestamp;P1;durP1;ratioP1;P2;durP2;ratioP2
27408;SDS011;20413;50.782;7.152;2022-10-31T00:00:51;15.85;;;7.15;;
27408;SDS011;20413;50.782;7.152;2022-10-31T00:03:16;12.10;;;7.13;;
27408;SDS011;20413;50.782;7.152;2022-10-31T00:05:46;12.73;;;6.15;;
27408;SDS011;20413;50.782;7.152;2022-10-31T00:08:12;10.02;;;6.43;;
27408;SDS011;20413;50.782;7.152;2022-10-31T00:10:39;13.73;;;6.57;;
27408;SDS011;20413;50.782;7.152;2022-10-31T00:13:05;12.32;;;6.85;;
27408;SDS011;20413;50.782;7.152;2022-10-31T00:15:32;15.73;;;7.18;;
27408;SDS011;20413;50.782;7.152;2022-10-31T00:18:01;9.63;;;6.82;;
27408;SDS011;20413;50.782;7.152;2022-10-31T00:20:27;13.50;;;7.55;;
27408;SDS011;20413;50.782;7.152;2022-10-31T00:22:54;21.38;;;7.85;;
27408;SDS011;20413;50.782;7.152;2022-10-31T00:25:23;14.38;;;6.53;;
27408;SDS011;20413;50.782;7.152;2022-10-31T00:27:48;15.13;;;7.78;;
27408;SDS011;20413;50.782;7.152;2022-10-31T00:30:14;15.32;;;7.28;;
27408;SDS011;20413;50.782;7.152;2022-10-31T00:32:39;14.55;;;7.95;;
27408;SDS011;20413;50.782;7.152;2022-10-31T00:35:05;12.55;;;6.93;;
27408;SDS011;20413;50.782;7.152;2022-10-31T00:37:31;14.82;;;7.63;;
27408;SDS011;20413;50.782;7.152;2022-10-31T00:39:56;16.30;;;7.63;;
27408;SDS011;20413;50.782;7.152;2022-10-31T00:42:22;9.88;;;7.03;;
27408;SDS011;20413;50.782;7.152;2022-10-31T00:44:47;12.25;;;6.95;;
27408;SDS011;20413;50.782;7.152;2022-10-31T00:47:13;11.60;;;6.97;;
27408;SDS011;20413;50.782;7.152;2022-10-31T00:49:38;16.35;;;7.28;;
27408;SDS011;20413;50.782;7.152;2022-10-31T00:52:04;13.68;;;6.57;;
27408;SDS011;20413;50.782;7.152;2022-10-31T00:54:29;14.82;;;7.45;;
27408;SDS011;20413;50.782;7.152;2022-10-31T00:56:56;10.00;;;6.45;;
27408;SDS011;20413;50.782;7.152;2022-10-31T00:59:21;16.70;;;8.27;;
27408;SDS011;20413;50.782;7.152;2022-10-31T01:01:47;16.75;;;7.93;;
27408;SDS011;20413;50.782;7.152;2022-10-31T01:04:13;14.90;;;7.75;;
27408;SDS011;20413;50.782;7.152;2022-10-31T01:06:38;11.98;;;6.97;;
27408;SDS011;20413;50.782;7.152;2022-10-31T01:09:04;13.48;;;6.60;;
27408;SDS011;20413;50.782;7.152;2022-10-31T01:11:29;12.23;;;7.07;;
27408;SDS011;20413;50.782;7.152;2022-10-31T01:13:55;13.63;;;7.78;;
27408;SDS011;20413;50.782;7.152;2022-10-31T01:16:21;18.90;;;8.25;;
27408;SDS011;20413;50.782;7.152;2022-10-31T01:18:48;12.98;;;8.35;;
27408;SDS011;20413;50.782;7.152;2022-10-31T01:21:16;14.10;;;7.70;;
27408;SDS011;20413;50.782;7.152;2022-10-31T01:23:44;12.35;;;7.22;;
27408;SDS011;20413;50.782;7.152;2022-10-31T01:26:10;12.98;;;7.93;;
27408;SDS011;20413;50.782;7.152;2022-10-31T01:28:51;12.93;;;7.20;;
27408;SDS011;20413;50.782;7.152;2022-10-31T01:31:22;12.18;;;7.35;;
27408;SDS011;20413;50.782;7.152;2022-10-31T01:33:49;14.70;;;7.78;;
27408;SDS011;20413;50.782;7.152;2022-10-31T01:36:16;17.42;;;7.57;;
27408;SDS011;20413;50.782;7.152;2022-10-31T01:38:45;11.55;;;7.28;;
27408;SDS011;20413;50.782;7.152;2022-10-31T01:41:13;14.95;;;6.93;;
27408;SDS011;20413;50.782;7.152;2022-10-31T01:43:55;12.35;;;6.85;;
27408;SDS011;20413;50.782;7.152;2022-10-31T01:46:27;15.93;;;7.60;;
27408;SDS011;20413;50.782;7.152;2022-10-31T01:49:03;12.18;;;7.30;;
27408;SDS011;20413;50.782;7.152;2022-10-31T01:51:32;11.98;;;6.72;;
27408;SDS011;20413;50.782;7.152;2022-10-31T01:54:09;19.88;;;7.82;;
27408;SDS011;20413;50.782;7.152;2022-10-31T01:56:39;12.23;;;7.60;;
27408;SDS011;20413;50.782;7.152;2022-10-31T01:59:08;15.48;;;7.85;;
27408;SDS011;20413;50.782;7.152;2022-10-31T02:01:37;18.73;;;7.88;;
27408;SDS011;20413;50.782;7.152;2022-10-31T02:04:03;18.00;;;8.38;;
27408;SDS011;20413;50.782;7.152;2022-10-31T02:06:36;14.65;;;7.63;;
27408;SDS011;20413;50.782;7.152;2022-10-31T02:09:18;15.60;;;7.40;;
27408;SDS011;20413;50.782;7.152;2022-10-31T02:11:48;16.85;;;8.07;;
27408;SDS011;20413;50.782;7.152;2022-10-31T02:14:16;18.55;;;8.95;;
27408;SDS011;20413;50.782;7.152;2022-10-31T02:16:42;18.52;;;8.05;;
27408;SDS011;20413;50.782;7.152;2022-10-31T02:19:07;18.20;;;7.75;;
27408;SDS011;20413;50.782;7.152;2022-10-31T02:21:45;13.23;;;7.78;;
27408;SDS011;20413;50.782;7.152;2022-10-31T02:40:17;10.30;;;7.15;;
27408;SDS011;20413;50.782;7.152;2022-10-31T02:43:05;20.02;;;7.53;;
27408;SDS011;20413;50.782;7.152;2022-10-31T02:45:43;22.45;;;7.80;;
27408;SDS011;20413;50.782;7.152;2022-10-31T02:48:12;14.13;;;7.32;;
27408;SDS011;20413;50.782;7.152;2022-10-31T02:50:45;16.38;;;7.47;;
27408;SDS011;20413;50.782;7.152;2022-10-31T02:53:20;12.18;;;6.57;;
27408;SDS011;20413;50.782;7.152;2022-10-31T02:58:23;9.70;;;6.90;;
27408;SDS011;20413;50.782;7.152;2022-10-31T03:09:24;14.93;;;6.60;;
27408;SDS011;20413;50.782;7.152;2022-10-31T03:14:37;11.65;;;6.35;;
27408;SDS011;20413;50.782;7.152;2022-10-31T03:17:15;11.57;;;6.85;;
27408;SDS011;20413;50.782;7.152;2022-10-31T03:19:51;17.33;;;6.97;;
27408;SDS011;20413;50.782;7.152;2022-10-31T03:22:20;13.90;;;7.28;;
27408;SDS011;20413;50.782;7.152;2022-10-31T03:24:52;13.95;;;7.57;;
27408;SDS011;20413;50.782;7.152;2022-10-31T03:27:22;12.77;;;7.10;;
27408;SDS011;20413;50.782;7.152;2022-10-31T03:29:50;13.52;;;7.05;;
27408;SDS011;20413;50.782;7.152;2022-10-31T03:32:43;13.27;;;6.53;;
27408;SDS011;20413;50.782;7.152;2022-10-31T03:35:08;18.15;;;7.40;;
27408;SDS011;20413;50.782;7.152;2022-10-31T03:37:35;13.98;;;6.70;;
27408;SDS011;20413;50.782;7.152;2022-10-31T03:42:31;13.13;;;7.28;;
27408;SDS011;20413;50.782;7.152;2022-10-31T03:45:01;14.55;;;6.80;;
27408;SDS011;20413;50.782;7.152;2022-10-31T03:47:28;14.10;;;7.03;;
27408;SDS011;20413;50.782;7.152;2022-10-31T03:49:54;11.50;;;6.47;;
27408;SDS011;20413;50.782;7.152;2022-10-31T03:54:53;17.77;;;6.60;;
27408;SDS011;20413;50.782;7.152;2022-10-31T03:57:29;17.63;;;7.25;;
27408;SDS011;20413;50.782;7.152;2022-10-31T04:00:07;13.65;;;6.70;;
27408;SDS011;20413;50.782;7.152;2022-10-31T04:02:36;14.30;;;6.68;;
27408;SDS011;20413;50.782;7.152;2022-10-31T04:05:06;12.93;;;6.05;;
27408;SDS011;20413;50.782;7.152;2022-10-31T04:07:34;11.57;;;6.78;;
27408;SDS011;20413;50.782;7.152;2022-10-31T04:10:04;13.07;;;6.07;;
27408;SDS011;20413;50.782;7.152;2022-10-31T04:12:33;14.93;;;6.72;;
27408;SDS011;20413;50.782;7.152;2022-10-31T04:15:01;14.68;;;6.85;;
27408;SDS011;20413;50.782;7.152;2022-10-31T04:17:31;14.18;;;7.28;;
27408;SDS011;20413;50.782;7.152;2022-10-31T04:19:59;15.43;;;6.90;;
27408;SDS011;20413;50.782;7.152;2022-10-31T04:22:25;12.75;;;7.30;;
27408;SDS011;20413;50.782;7.152;2022-10-31T04:24:51;14.13;;;6.65;;
27408;SDS011;20413;50.782;7.152;2022-10-31T04:27:17;11.65;;;6.35;;
27408;SDS011;20413;50.782;7.152;2022-10-31T04:29:42;14.45;;;7.53;;
27408;SDS011;20413;50.782;7.152;2022-10-31T04:32:08;15.73;;;6.32;;
27408;SDS011;20413;50.782;7.152;2022-10-31T04:34:33;13.23;;;6.55;;
27408;SDS011;20413;50.782;7.152;2022-10-31T04:36:59;9.77;;;6.10;;
27408;SDS011;20413;50.782;7.152;2022-10-31T04:39:24;13.57;;;6.53;;
27408;SDS011;20413;50.782;7.152;2022-10-31T04:41:50;11.30;;;6.43;;
27408;SDS011;20413;50.782;7.152;2022-10-31T04:44:15;10.13;;;6.45;;
27408;SDS011;20413;50.782;7.152;2022-10-31T04:46:41;15.13;;;6.80;;
27408;SDS011;20413;50.782;7.152;2022-10-31T04:49:07;13.07;;;6.50;;
27408;SDS011;20413;50.782;7.152;2022-10-31T04:51:32;11.15;;;6.15;;
27408;SDS011;20413;50.782;7.152;2022-10-31T04:53:58;10.07;;;5.97;;
27408;SDS011;20413;50.782;7.152;2022-10-31T04:56:23;13.75;;;6.55;;
27408;SDS011;20413;50.782;7.152;2022-10-31T04:58:49;11.15;;;6.63;;
27408;SDS011;20413;50.782;7.152;2022-10-31T05:01:14;15.95;;;6.53;;
27408;SDS011;20413;50.782;7.152;2022-10-31T05:03:40;21.20;;;7.50;;
27408;SDS011;20413;50.782;7.152;2022-10-31T05:06:06;18.42;;;7.40;;
27408;SDS011;20413;50.782;7.152;2022-10-31T05:08:32;16.50;;;7.22;;
27408;SDS011;20413;50.782;7.152;2022-10-31T05:11:01;18.52;;;6.88;;
27408;SDS011;20413;50.782;7.152;2022-10-31T05:13:28;12.30;;;6.50;;
27408;SDS011;20413;50.782;7.152;2022-10-31T05:15:53;11.75;;;6.03;;
27408;SDS011;20413;50.782;7.152;2022-10-31T05:18:19;12.27;;;6.45;;
27408;SDS011;20413;50.782;7.152;2022-10-31T05:20:45;12.23;;;6.45;;
27408;SDS011;20413;50.782;7.152;2022-10-31T05:23:10;19.23;;;7.70;;
27408;SDS011;20413;50.782;7.152;2022-10-31T05:25:36;11.93;;;6.28;;
27408;SDS011;20413;50.782;7.152;2022-10-31T05:28:01;16.05;;;7.30;;
27408;SDS011;20413;50.782;7.152;2022-10-31T05:30:28;14.77;;;6.78;;
27408;SDS011;20413;50.782;7.152;2022-10-31T05:32:56;16.20;;;7.15;;
27408;SDS011;20413;50.782;7.152;2022-10-31T05:35:23;10.25;;;6.05;;
27408;SDS011;20413;50.782;7.152;2022-10-31T05:37:53;11.20;;;6.60;;
27408;SDS011;20413;50.782;7.152;2022-10-31T05:40:18;15.15;;;7.30;;
27408;SDS011;20413;50.782;7.152;2022-10-31T05:42:45;11.13;;;6.75;;
27408;SDS011;20413;50.782;7.152;2022-10-31T05:45:13;12.18;;;7.38;;
27408;SDS011;20413;50.782;7.152;2022-10-31T05:47:40;13.98;;;6.38;;
27408;SDS011;20413;50.782;7.152;2022-10-31T05:50:09;11.75;;;7.28;;
27408;SDS011;20413;50.782;7.152;2022-10-31T05:52:35;12.05;;;6.75;;
27408;SDS011;20413;50.782;7.152;2022-10-31T05:55:01;14.10;;;6.47;;
27408;SDS011;20413;50.782;7.152;2022-10-31T05:57:27;10.73;;;6.50;;
27408;SDS011;20413;50.782;7.152;2022-10-31T05:59:54;12.82;;;6.32;;
27408;SDS011;20413;50.782;7.152;2022-10-31T06:02:20;10.48;;;6.55;;
27408;SDS011;20413;50.782;7.152;2022-10-31T06:04:46;14.55;;;6.72;;
27408;SDS011;20413;50.782;7.152;2022-10-31T06:07:12;12.02;;;6.35;;
27408;SDS011;20413;50.782;7.152;2022-10-31T06:09:37;12.73;;;6.78;;
27408;SDS011;20413;50.782;7.152;2022-10-31T06:12:03;14.32;;;6.32;;
27408;SDS011;20413;50.782;7.152;2022-10-31T06:14:28;13.55;;;6.72;;
27408;SDS011;20413;50.782;7.152;2022-10-31T06:16:54;18.60;;;7.07;;
27408;SDS011;20413;50.782;7.152;2022-10-31T06:19:20;15.55;;;7.28;;
27408;SDS011;20413;50.782;7.152;2022-10-31T06:21:46;14.55;;;6.82;;
27408;SDS011;20413;50.782;7.152;2022-10-31T06:24:12;13.93;;;7.20;;
27408;SDS011;20413;50.782;7.152;2022-10-31T06:26:37;12.35;;;7.05;;
27408;SDS011;20413;50.782;7.152;2022-10-31T06:29:03;15.48;;;7.45;;
27408;SDS011;20413;50.782;7.152;2022-10-31T06:31:28;12.00;;;6.68;;
27408;SDS011;20413;50.782;7.152;2022-10-31T06:33:54;14.70;;;6.53;;
27408;SDS011;20413;50.782;7.152;2022-10-31T06:36:20;12.38;;;6.82;;
27408;SDS011;20413;50.782;7.152;2022-10-31T06:38:45;10.77;;;6.88;;
27408;SDS011;20413;50.782;7.152;2022-10-31T06:41:11;13.13;;;6.97;;
27408;SDS011;20413;50.782;7.152;2022-10-31T06:43:36;13.05;;;7.13;;
27408;SDS011;20413;50.782;7.152;2022-10-31T06:46:02;11.75;;;6.18;;
27408;SDS011;20413;50.782;7.152;2022-10-31T06:48:29;14.68;;;6.53;;
27408;SDS011;20413;50.782;7.152;2022-10-31T06:50:57;12.63;;;6.32;;
27408;SDS011;20413;50.782;7.152;2022-10-31T06:53:24;15.35;;;6.93;;
27408;SDS011;20413;50.782;7.152;2022-10-31T06:55:49;12.30;;;6.85;;
27408;SDS011;20413;50.782;7.152;2022-10-31T06:58:15;11.32;;;6.97;;
27408;SDS011;20413;50.782;7.152;2022-10-31T07:00:40;13.73;;;7.28;;
27408;SDS011;20413;50.782;7.152;2022-10-31T07:03:08;15.18;;;6.97;;
27408;SDS011;20413;50.782;7.152;2022-10-31T07:05:35;12.48;;;6.38;;
27408;SDS011;20413;50.782;7.152;2022-10-31T07:08:02;12.68;;;7.20;;
27408;SDS011;20413;50.782;7.152;2022-10-31T07:10:31;12.57;;;7.18;;
27408;SDS011;20413;50.782;7.152;2022-10-31T07:12:59;16.10;;;6.80;;
27408;SDS011;20413;50.782;7.152;2022-10-31T07:15:30;13.30;;;6.20;;
27408;SDS011;20413;50.782;7.152;2022-10-31T07:18:02;20.02;;;7.50;;
27408;SDS011;20413;50.782;7.152;2022-10-31T07:20:29;14.43;;;6.93;;
27408;SDS011;20413;50.782;7.152;2022-10-31T07:22:55;18.83;;;7.07;;
27408;SDS011;20413;50.782;7.152;2022-10-31T07:25:21;14.07;;;6.25;;
27408;SDS011;20413;50.782;7.152;2022-10-31T07:27:47;14.35;;;6.70;;
27408;SDS011;20413;50.782;7.152;2022-10-31T07:30:13;19.27;;;7.45;;
27408;SDS011;20413;50.782;7.152;2022-10-31T07:32:40;12.52;;;6.50;;
27408;SDS011;20413;50.782;7.152;2022-10-31T07:35:07;11.38;;;6.45;;
27408;SDS011;20413;50.782;7.152;2022-10-31T07:37:34;16.87;;;6.73;;
27408;SDS011;20413;50.782;7.152;2022-10-31T07:39:59;14.73;;;7.63;;
27408;SDS011;20413;50.782;7.152;2022-10-31T07:42:25;11.68;;;6.53;;
27408;SDS011;20413;50.782;7.152;2022-10-31T07:44:51;18.38;;;7.20;;
27408;SDS011;20413;50.782;7.152;2022-10-31T07:47:16;15.50;;;7.30;;
27408;SDS011;20413;50.782;7.152;2022-10-31T07:49:42;16.83;;;8.10;;
27408;SDS011;20413;50.782;7.152;2022-10-31T07:52:07;10.35;;;6.95;;
27408;SDS011;20413;50.782;7.152;2022-10-31T07:54:33;12.57;;;6.28;;
27408;SDS011;20413;50.782;7.152;2022-10-31T07:56:58;13.65;;;7.05;;
27408;SDS011;20413;50.782;7.152;2022-10-31T07:59:24;12.43;;;7.13;;
27408;SDS011;20413;50.782;7.152;2022-10-31T08:01:50;11.77;;;6.15;;
27408;SDS011;20413;50.782;7.152;2022-10-31T08:04:16;10.25;;;6.28;;
27408;SDS011;20413;50.782;7.152;2022-10-31T08:06:41;16.35;;;6.45;;
27408;SDS011;20413;50.782;7.152;2022-10-31T08:09:07;13.75;;;6.45;;
27408;SDS011;20413;50.782;7.152;2022-10-31T08:11:33;8.93;;;5.75;;
27408;SDS011;20413;50.782;7.152;2022-10-31T08:13:58;13.88;;;6.47;;
27408;SDS011;20413;50.782;7.152;2022-10-31T08:16:24;14.05;;;6.30;;
27408;SDS011;20413;50.782;7.152;2022-10-31T08:18:49;13.70;;;6.38;;
27408;SDS011;20413;50.782;7.152;2022-10-31T08:21:15;15.07;;;6.80;;
27408;SDS011;20413;50.782;7.152;2022-10-31T08:23:40;15.38;;;6.47;;
27408;SDS011;20413;50.782;7.152;2022-10-31T08:26:06;16.83;;;6.53;;
27408;SDS011;20413;50.782;7.152;2022-10-31T08:28:32;14.82;;;6.60;;
27408;SDS011;20413;50.782;7.152;2022-10-31T08:30:58;18.25;;;6.43;;
27408;SDS011;20413;50.782;7.152;2022-10-31T08:33:24;23.40;;;6.93;;
27408;SDS011;20413;50.782;7.152;2022-10-31T08:35:49;9.80;;;6.05;;
27408;SDS011;20413;50.782;7.152;2022-10-31T08:38:15;12.32;;;6.70;;
27408;SDS011;20413;50.782;7.152;2022-10-31T08:40:41;11.55;;;5.80;;
27408;SDS011;20413;50.782;7.152;2022-10-31T08:43:14;12.85;;;7.03;;
27408;SDS011;20413;50.782;7.152;2022-10-31T08:45:41;16.48;;;6.95;;
27408;SDS011;20413;50.782;7.152;2022-10-31T08:48:11;12.82;;;6.50;;
27408;SDS011;20413;50.782;7.152;2022-10-31T08:50:38;13.90;;;5.75;;
27408;SDS011;20413;50.782;7.152;2022-10-31T08:53:05;14.18;;;5.78;;
27408;SDS011;20413;50.782;7.152;2022-10-31T08:55:36;16.63;;;6.50;;
27408;SDS011;20413;50.782;7.152;2022-10-31T08:58:04;12.20;;;5.85;;
27408;SDS011;20413;50.782;7.152;2022-10-31T09:00:35;16.02;;;6.30;;
27408;SDS011;20413;50.782;7.152;2022-10-31T09:03:03;12.02;;;6.47;;
27408;SDS011;20413;50.782;7.152;2022-10-31T09:05:31;12.73;;;6.30;;
27408;SDS011;20413;50.782;7.152;2022-10-31T09:07:57;10.00;;;5.93;;
27408;SDS011;20413;50.782;7.152;2022-10-31T09:10:24;13.27;;;5.68;;
27408;SDS011;20413;50.782;7.152;2022-10-31T09:13:00;13.18;;;6.15;;
27408;SDS011;20413;50.782;7.152;2022-10-31T09:15:35;10.25;;;5.60;;
27408;SDS011;20413;50.782;7.152;2022-10-31T09:18:06;11.75;;;5.82;;
27408;SDS011;20413;50.782;7.152;2022-10-31T09:20:33;9.73;;;5.72;;
27408;SDS011;20413;50.782;7.152;2022-10-31T09:23:00;13.07;;;5.97;;
27408;SDS011;20413;50.782;7.152;2022-10-31T09:25:28;11.95;;;6.35;;
27408;SDS011;20413;50.782;7.152;2022-10-31T09:27:57;14.80;;;6.10;;
27408;SDS011;20413;50.782;7.152;2022-10-31T09:30:24;10.52;;;5.95;;
27408;SDS011;20413;50.782;7.152;2022-10-31T09:32:58;12.97;;;5.30;;
27408;SDS011;20413;50.782;7.152;2022-10-31T09:35:25;10.40;;;5.45;;
27408;SDS011;20413;50.782;7.152;2022-10-31T09:38:01;11.85;;;5.65;;
27408;SDS011;20413;50.782;7.152;2022-10-31T09:40:35;12.18;;;6.03;;
27408;SDS011;20413;50.782;7.152;2022-10-31T09:45:45;14.55;;;6.22;;
27408;SDS011;20413;50.782;7.152;2022-10-31T09:50:55;16.63;;;6.05;;
27408;SDS011;20413;50.782;7.152;2022-10-31T09:53:27;9.85;;;5.00;;
27408;SDS011;20413;50.782;7.152;2022-10-31T09:56:02;13.68;;;5.60;;
27408;SDS011;20413;50.782;7.152;2022-10-31T09:58:33;11.77;;;5.90;;
27408;SDS011;20413;50.782;7.152;2022-10-31T10:01:02;9.57;;;5.85;;
27408;SDS011;20413;50.782;7.152;2022-10-31T10:03:32;14.93;;;6.40;;
27408;SDS011;20413;50.782;7.152;2022-10-31T10:08:38;13.48;;;5.50;;
27408;SDS011;20413;50.782;7.152;2022-10-31T10:13:45;13.50;;;5.57;;
27408;SDS011;20413;50.782;7.152;2022-10-31T10:19:24;14.93;;;6.28;;
27408;SDS011;20413;50.782;7.152;2022-10-31T10:32:49;14.95;;;5.85;;
27408;SDS011;20413;50.782;7.152;2022-10-31T10:37:49;16.88;;;5.88;;
27408;SDS011;20413;50.782;7.152;2022-10-31T10:40:19;11.70;;;5.15;;
27408;SDS011;20413;50.782;7.152;2022-10-31T10:43:15;11.40;;;5.78;;
27408;SDS011;20413;50.782;7.152;2022-10-31T10:45:49;13.07;;;5.50;;
27408;SDS011;20413;50.782;7.152;2022-10-31T10:51:40;11.63;;;4.90;;
27408;SDS011;20413;50.782;7.152;2022-10-31T10:59:34;10.23;;;5.60;;
27408;SDS011;20413;50.782;7.152;2022-10-31T11:02:00;9.95;;;5.05;;
27408;SDS011;20413;50.782;7.152;2022-10-31T11:04:32;10.57;;;5.40;;
27408;SDS011;20413;50.782;7.152;2022-10-31T11:07:04;8.85;;;4.80;;
27408;SDS011;20413;50.782;7.152;2022-10-31T11:09:32;12.25;;;5.18;;
27408;SDS011;20413;50.782;7.152;2022-10-31T11:11:58;8.30;;;4.82;;
27408;SDS011;20413;50.782;7.152;2022-10-31T11:14:30;10.60;;;4.80;;
27408;SDS011;20413;50.782;7.152;2022-10-31T11:17:10;8.73;;;4.60;;
27408;SDS011;20413;50.782;7.152;2022-10-31T11:19:44;9.75;;;5.03;;
27408;SDS011;20413;50.782;7.152;2022-10-31T11:22:14;12.38;;;5.50;;
27408;SDS011;20413;50.782;7.152;2022-10-31T11:24:43;12.30;;;5.05;;
27408;SDS011;20413;50.782;7.152;2022-10-31T11:27:22;7.40;;;5.13;;
27408;SDS011;20413;50.782;7.152;2022-10-31T11:29:49;11.25;;;5.38;;
27408;SDS011;20413;50.782;7.152;2022-10-31T11:34:49;8.35;;;4.22;;
27408;SDS011;20413;50.782;7.152;2022-10-31T11:37:24;8.00;;;4.55;;
27408;SDS011;20413;50.782;7.152;2022-10-31T11:39:53;11.93;;;5.30;;
27408;SDS011;20413;50.782;7.152;2022-10-31T11:42:25;8.15;;;4.38;;
27408;SDS011;20413;50.782;7.152;2022-10-31T11:44:55;6.90;;;4.50;;
27408;SDS011;20413;50.782;7.152;2022-10-31T11:47:26;10.43;;;5.57;;
27408;SDS011;20413;50.782;7.152;2022-10-31T11:49:53;8.27;;;4.38;;
27408;SDS011;20413;50.782;7.152;2022-10-31T11:54:53;11.13;;;4.90;;
27408;SDS011;20413;50.782;7.152;2022-10-31T11:57:26;9.95;;;4.35;;
27408;SDS011;20413;50.782;7.152;2022-10-31T11:59:55;9.88;;;4.03;;
27408;SDS011;20413;50.782;7.152;2022-10-31T12:04:50;9.32;;;4.65;;
27408;SDS011;20413;50.782;7.152;2022-10-31T12:07:33;7.93;;;4.88;;
27408;SDS011;20413;50.782;7.152;2022-10-31T12:09:59;7.65;;;3.95;;
27408;SDS011;20413;50.782;7.152;2022-10-31T12:12:28;7.50;;;4.20;;
27408;SDS011;20413;50.782;7.152;2022-10-31T12:37:26;9.20;;;3.70;;
27408;SDS011;20413;50.782;7.152;2022-10-31T12:45:56;8.75;;;3.70;;
27408;SDS011;20413;50.782;7.152;2022-10-31T12:51:00;8.10;;;3.30;;
27408;SDS011;20413;50.782;7.152;2022-10-31T12:56:27;12.10;;;4.28;;
27408;SDS011;20413;50.782;7.152;2022-10-31T12:59:00;6.60;;;3.33;;
27408;SDS011;20413;50.782;7.152;2022-10-31T13:01:40;11.25;;;3.92;;
27408;SDS011;20413;50.782;7.152;2022-10-31T13:07:17;10.57;;;3.60;;
27408;SDS011;20413;50.782;7.152;2022-10-31T13:09:54;8.23;;;3.80;;
27408;SDS011;20413;50.782;7.152;2022-10-31T13:12:40;8.75;;;3.85;;
27408;SDS011;20413;50.782;7.152;2022-10-31T13:15:17;6.18;;;3.47;;
27408;SDS011;20413;50.782;7.152;2022-10-31T13:18:09;10.57;;;3.80;;
27408;SDS011;20413;50.782;7.152;2022-10-31T13:20:43;13.00;;;4.15;;
27408;SDS011;20413;50.782;7.152;2022-10-31T13:25:53;9.65;;;3.60;;
27408;SDS011;20413;50.782;7.152;2022-10-31T13:30:50;11.85;;;3.88;;
27408;SDS011;20413;50.782;7.152;2022-10-31T13:38:40;7.78;;;3.30;;
27408;SDS011;20413;50.782;7.152;2022-10-31T13:41:26;10.10;;;3.40;;
27408;SDS011;20413;50.782;7.152;2022-10-31T13:44:02;6.60;;;3.65;;
27408;SDS011;20413;50.782;7.152;2022-10-31T13:46:37;12.95;;;4.38;;
27408;SDS011;20413;50.782;7.152;2022-10-31T13:49:20;9.23;;;3.50;;
27408;SDS011;20413;50.782;7.152;2022-10-31T13:57:12;8.18;;;3.58;;
27408;SDS011;20413;50.782;7.152;2022-10-31T13:59:45;11.02;;;3.67;;
27408;SDS011;20413;50.782;7.152;2022-10-31T14:02:30;12.73;;;3.78;;
27408;SDS011;20413;50.782;7.152;2022-10-31T14:05:05;11.95;;;3.72;;
27408;SDS011;20413;50.782;7.152;2022-10-31T14:07:44;9.95;;;3.70;;
27408;SDS011;20413;50.782;7.152;2022-10-31T14:10:22;8.25;;;4.25;;
27408;SDS011;20413;50.782;7.152;2022-10-31T14:12:50;8.88;;;3.38;;
27408;SDS011;20413;50.782;7.152;2022-10-31T14:22:43;8.07;;;3.90;;
27408;SDS011;20413;50.782;7.152;2022-10-31T14:28:20;11.45;;;4.38;;
27408;SDS011;20413;50.782;7.152;2022-10-31T14:30:57;10.88;;;3.75;;
27408;SDS011;20413;50.782;7.152;2022-10-31T14:33:28;6.38;;;3.75;;
27408;SDS011;20413;50.782;7.152;2022-10-31T14:41:06;12.13;;;3.58;;
27408;SDS011;20413;50.782;7.152;2022-10-31T14:46:57;10.57;;;3.42;;
27408;SDS011;20413;50.782;7.152;2022-10-31T14:52:30;11.80;;;4.03;;
27408;SDS011;20413;50.782;7.152;2022-10-31T14:54:56;8.60;;;3.15;;
27408;SDS011;20413;50.782;7.152;2022-10-31T14:57:27;5.85;;;3.45;;
27408;SDS011;20413;50.782;7.152;2022-10-31T15:00:01;6.13;;;3.42;;
27408;SDS011;20413;50.782;7.152;2022-10-31T15:02:41;6.05;;;3.38;;
27408;SDS011;20413;50.782;7.152;2022-10-31T15:05:21;9.95;;;3.60;;
27408;SDS011;20413;50.782;7.152;2022-10-31T15:07:53;9.75;;;3.92;;
27408;SDS011;20413;50.782;7.152;2022-10-31T15:10:25;5.95;;;3.30;;
27408;SDS011;20413;50.782;7.152;2022-10-31T15:12:54;8.50;;;3.53;;
27408;SDS011;20413;50.782;7.152;2022-10-31T15:15:24;10.77;;;3.88;;
27408;SDS011;20413;50.782;7.152;2022-10-31T15:17:56;11.07;;;3.25;;
27408;SDS011;20413;50.782;7.152;2022-10-31T15:20:25;7.10;;;4.20;;
27408;SDS011;20413;50.782;7.152;2022-10-31T15:22:53;5.88;;;3.40;;
27408;SDS011;20413;50.782;7.152;2022-10-31T15:25:22;8.80;;;3.55;;
27408;SDS011;20413;50.782;7.152;2022-10-31T15:27:50;7.97;;;3.47;;
27408;SDS011;20413;50.782;7.152;2022-10-31T15:30:21;6.70;;;3.15;;
27408;SDS011;20413;50.782;7.152;2022-10-31T15:32:51;10.77;;;3.33;;
27408;SDS011;20413;50.782;7.152;2022-10-31T15:35:27;10.13;;;3.92;;
27408;SDS011;20413;50.782;7.152;2022-10-31T15:37:54;15.23;;;3.65;;
27408;SDS011;20413;50.782;7.152;2022-10-31T15:40:22;5.53;;;3.20;;
27408;SDS011;20413;50.782;7.152;2022-10-31T15:45:23;8.73;;;3.90;;
27408;SDS011;20413;50.782;7.152;2022-10-31T15:50:31;8.05;;;3.40;;
27408;SDS011;20413;50.782;7.152;2022-10-31T15:53:03;7.68;;;3.28;;
27408;SDS011;20413;50.782;7.152;2022-10-31T15:55:31;10.68;;;3.65;;
27408;SDS011;20413;50.782;7.152;2022-10-31T15:58:02;11.23;;;3.75;;
27408;SDS011;20413;50.782;7.152;2022-10-31T16:00:38;9.70;;;3.70;;
27408;SDS011;20413;50.782;7.152;2022-10-31T16:03:05;7.18;;;3.55;;
27408;SDS011;20413;50.782;7.152;2022-10-31T16:05:35;9.98;;;4.22;;
27408;SDS011;20413;50.782;7.152;2022-10-31T16:08:03;10.98;;;3.40;;
27408;SDS011;20413;50.782;7.152;2022-10-31T16:10:32;6.88;;;3.70;;
27408;SDS011;20413;50.782;7.152;2022-10-31T16:13:00;11.68;;;3.40;;
27408;SDS011;20413;50.782;7.152;2022-10-31T16:15:27;10.23;;;4.05;;
27408;SDS011;20413;50.782;7.152;2022-10-31T16:17:54;8.48;;;3.17;;
27408;SDS011;20413;50.782;7.152;2022-10-31T16:20:27;5.40;;;3.13;;
27408;SDS011;20413;50.782;7.152;2022-10-31T16:22:54;9.20;;;3.58;;
27408;SDS011;20413;50.782;7.152;2022-10-31T16:25:24;9.55;;;3.30;;
27408;SDS011;20413;50.782;7.152;2022-10-31T16:27:52;9.43;;;3.65;;
27408;SDS011;20413;50.782;7.152;2022-10-31T16:35:52;8.07;;;3.40;;
27408;SDS011;20413;50.782;7.152;2022-10-31T16:38:18;6.75;;;3.47;;
27408;SDS011;20413;50.782;7.152;2022-10-31T16:40:44;6.78;;;3.25;;
27408;SDS011;20413;50.782;7.152;2022-10-31T16:43:11;8.43;;;3.85;;
27408;SDS011;20413;50.782;7.152;2022-10-31T16:45:37;7.32;;;3.22;;
27408;SDS011;20413;50.782;7.152;2022-10-31T16:48:12;7.78;;;3.15;;
27408;SDS011;20413;50.782;7.152;2022-10-31T16:50:40;8.73;;;3.63;;
27408;SDS011;20413;50.782;7.152;2022-10-31T16:53:06;8.05;;;3.72;;
27408;SDS011;20413;50.782;7.152;2022-10-31T16:55:32;8.68;;;3.83;;
27408;SDS011;20413;50.782;7.152;2022-10-31T16:58:00;12.05;;;3.63;;
27408;SDS011;20413;50.782;7.152;2022-10-31T17:00:26;10.77;;;4.72;;
27408;SDS011;20413;50.782;7.152;2022-10-31T17:02:54;12.57;;;4.30;;
27408;SDS011;20413;50.782;7.152;2022-10-31T17:05:22;9.43;;;4.45;;
27408;SDS011;20413;50.782;7.152;2022-10-31T17:07:57;15.48;;;4.28;;
27408;SDS011;20413;50.782;7.152;2022-10-31T17:10:23;11.73;;;3.85;;
27408;SDS011;20413;50.782;7.152;2022-10-31T17:12:50;11.65;;;3.80;;
27408;SDS011;20413;50.782;7.152;2022-10-31T17:15:26;12.20;;;4.22;;
27408;SDS011;20413;50.782;7.152;2022-10-31T17:17:52;10.48;;;4.32;;
27408;SDS011;20413;50.782;7.152;2022-10-31T17:20:20;11.70;;;4.47;;
27408;SDS011;20413;50.782;7.152;2022-10-31T17:22:46;16.40;;;4.35;;
27408;SDS011;20413;50.782;7.152;2022-10-31T17:25:14;13.38;;;4.25;;
27408;SDS011;20413;50.782;7.152;2022-10-31T17:27:40;11.93;;;4.00;;
27408;SDS011;20413;50.782;7.152;2022-10-31T17:30:07;14.70;;;4.55;;
27408;SDS011;20413;50.782;7.152;2022-10-31T17:32:33;12.48;;;4.47;;